Oriana — ZCDU9 — position and weather

sailwx.info

Track history (hours):
 
Tides and Currents Weather Stations Pressure Air Temp Water Temp Dewpoint Dewpoint Depression Visibility Wind Speed Wind Dir Waves Ship Positions

Oriana (Bermuda)

Last reported at 2016-Jun-26 22:21 UTC. Time now 2016-Jun-27 18:28 UTC.
Position N 39°19' W 009°49'.

Length 261 m; beam 32.2 m; draft 8.2 m.

Type: Ship. MMSI: 310529000.

Date/timePositionNaut miles runAvg speedWind from/ knotsBaromVisibWave heightAir tempDewpointWater temp
2016-Jun-26 22:21N 39°19' W 009°49'1416.0
2016-Jun-26 21:29N 39°06' W 009°46'1516.1
2016-Jun-26 20:34N 38°51' W 009°43'1413.8
2016-Jun-26 19:33N 38°38' W 009°37'1515.0
2016-Jun-26 18:33N 38°41' W 009°18'8 8.1
2016-Jun-26 17:32N 38°43' W 009°08'0 0.0
2016-Jun-26 16:23N 38°43' W 009°08'0 0.0
2016-Jun-26 15:33N 38°43' W 009°08'0 0.0
2016-Jun-26 14:32N 38°43' W 009°08'0 0.0
2016-Jun-26 13:28N 38°43' W 009°08'0 0.0
2016-Jun-26 12:33N 38°43' W 009°08'0 0.0
2016-Jun-26 11:32N 38°43' W 009°08'0 0.0
2016-Jun-26 10:33N 38°43' W 009°08'0 0.0
2016-Jun-26 09:33N 38°43' W 009°08'0 0.0
2016-Jun-26 08:32N 38°43' W 009°08'0 0.0
2016-Jun-26 07:29N 38°43' W 009°08'7 6.7
2016-Jun-26 06:28N 38°41' W 009°16'1516.2
2016-Jun-26 05:33N 38°30' W 009°28'2016.3
2016-Jun-26 04:19N 38°11' W 009°36'1316.6
2016-Jun-26 03:33N 37°58' W 009°41'7117.5
2016-Jun-25 23:29N 36°51' W 010°10'1718.5
2016-Jun-25 22:33N 36°35' W 010°17'4417.9
2016-Jun-25 20:07N 35°53' W 010°34'915.2
2016-Jun-25 19:33N 35°45' W 010°37'1628.0
2016-Jun-25 19:00N 35°30' W 010°42'3 4.9 010 / 301017.010.8 19.514.720.0
2016-Jun-25 18:26N 35°28' W 010°44'32917.1
2016-Jun-24 23:15N 30°16' W 012°48'1316.9
2016-Jun-24 22:30N 30°04' W 012°53'1716.8
2016-Jun-24 21:28N 29°48' W 012°59'1817.1
2016-Jun-24 20:25N 29°31' W 013°06'4016.9
2016-Jun-24 18:03N 28°54' W 013°25'1017.2
2016-Jun-24 17:27N 28°46' W 013°32'1617.7
2016-Jun-24 16:33N 28°34' W 013°44'31 2.3
2016-Jun-24 03:26N 28°49' W 014°15'1517.3
2016-Jun-24 02:33N 28°49' W 014°32'132 2.9
2016-Jun-22 04:32N 28°49' W 017°02'2018.4
2016-Jun-22 03:28N 29°09' W 017°02'1919.0
2016-Jun-22 02:27N 29°28' W 017°01'11818.5
2016-Jun-21 20:04N 31°26' W 016°57'1018.4
2016-Jun-21 19:33N 31°36' W 016°56'2318.3
2016-Jun-21 18:19N 31°58' W 016°55'1518.4
2016-Jun-21 17:31N 32°13' W 016°55'2018.5
2016-Jun-21 16:26N 32°33' W 016°54'82 4.7
2016-Jun-20 23:07N 33°36' W 015°53'4215.1
2016-Jun-20 20:20N 34°15' W 015°33'1215.8
2016-Jun-20 19:33N 34°26' W 015°27'1615.8
2016-Jun-20 18:33N 34°41' W 015°20'2216.1
2016-Jun-20 17:09N 35°01' W 015°09'1116.2
2016-Jun-20 16:30N 35°11' W 015°04'1616.3
2016-Jun-20 15:33N 35°25' W 014°56'2116.3
2016-Jun-20 14:16N 35°45' W 014°46'27516.3
2016-Jun-19 21:23N 39°57' W 012°30'1516.4
2016-Jun-19 20:30N 40°11' W 012°22'1716.5
2016-Jun-19 19:28N 40°26' W 012°13'59416.4
2016-Jun-18 07:18N 49°04' W 005°22'7814.9
2016-Jun-18 02:06N 49°42' W 003°39'916.2
2016-Jun-18 01:32N 49°47' W 003°27'1717.0
2016-Jun-18 00:33N 49°54' W 003°04'1917.8
2016-Jun-17 23:29N 50°02' W 002°36'5016.9
2016-Jun-17 20:31N 50°25' W 001°27'1414.5
2016-Jun-17 19:33N 50°32' W 001°08'1212.4
2016-Jun-17 18:34N 50°43' W 000°59'1313.1
2016-Jun-17 17:33N 50°49' W 001°18'7 6.9
2016-Jun-17 16:29N 50°54' W 001°26'0 0.0
2016-Jun-17 15:32N 50°54' W 001°26'0 0.0
2016-Jun-17 14:32N 50°54' W 001°26'0 0.0
2016-Jun-17 13:32N 50°54' W 001°26'0 0.0
2016-Jun-17 12:32N 50°54' W 001°26'0 0.0
2016-Jun-17 11:26N 50°54' W 001°26'0 0.0
2016-Jun-17 10:32N 50°54' W 001°26'0 0.0
2016-Jun-17 09:32N 50°54' W 001°26'0 0.0
2016-Jun-17 08:32N 50°54' W 001°26'0 0.0
2016-Jun-17 07:32N 50°54' W 001°26'0 0.0
2016-Jun-17 06:32N 50°54' W 001°26'0 0.1
2016-Jun-17 05:33N 50°54' W 001°26'6 6.4
2016-Jun-17 04:33N 50°50' W 001°19'10 9.6
2016-Jun-17 03:33N 50°45' W 001°06'1110.9
2016-Jun-17 02:33N 50°35' W 000°60'1615.1
2016-Jun-17 01:30N 50°27' W 001°22'3114.4
2016-Jun-16 23:21N 50°12' W 002°04'  
Track history (hours):
 
Tides and Currents Weather Stations Pressure Air Temp Water Temp Dewpoint Dewpoint Depression Visibility Wind Speed Wind Dir Waves Ship Positions

Oriana (Bermuda)

Last reported at 2016-Jun-26 22:21 UTC. Time now 2016-Jun-27 18:28 UTC.
Position N 39°19' W 009°49'.

Length 261 m; beam 32.2 m; draft 8.2 m.

Type: Ship. MMSI: 310529000.

Date/timePositionNaut miles runAvg speedWind from/ knotsBaromVisibWave heightAir tempDewpointWater temp
2016-Jun-26 22:21N 39°19' W 009°49'1416.0
2016-Jun-26 21:29N 39°06' W 009°46'1516.1
2016-Jun-26 20:34N 38°51' W 009°43'1413.8
2016-Jun-26 19:33N 38°38' W 009°37'1515.0
2016-Jun-26 18:33N 38°41' W 009°18'8 8.1
2016-Jun-26 17:32N 38°43' W 009°08'0 0.0
2016-Jun-26 16:23N 38°43' W 009°08'0 0.0
2016-Jun-26 15:33N 38°43' W 009°08'0 0.0
2016-Jun-26 14:32N 38°43' W 009°08'0 0.0
2016-Jun-26 13:28N 38°43' W 009°08'0 0.0
2016-Jun-26 12:33N 38°43' W 009°08'0 0.0
2016-Jun-26 11:32N 38°43' W 009°08'0 0.0
2016-Jun-26 10:33N 38°43' W 009°08'0 0.0
2016-Jun-26 09:33N 38°43' W 009°08'0 0.0
2016-Jun-26 08:32N 38°43' W 009°08'0 0.0
2016-Jun-26 07:29N 38°43' W 009°08'7 6.7
2016-Jun-26 06:28N 38°41' W 009°16'1516.2
2016-Jun-26 05:33N 38°30' W 009°28'2016.3
2016-Jun-26 04:19N 38°11' W 009°36'1316.6
2016-Jun-26 03:33N 37°58' W 009°41'7117.5
2016-Jun-25 23:29N 36°51' W 010°10'1718.5
2016-Jun-25 22:33N 36°35' W 010°17'4417.9
2016-Jun-25 20:07N 35°53' W 010°34'915.2
2016-Jun-25 19:33N 35°45' W 010°37'1628.0
2016-Jun-25 19:00N 35°30' W 010°42'3 4.9 010 / 301017.010.8 19.514.720.0
2016-Jun-25 18:26N 35°28' W 010°44'32917.1
2016-Jun-24 23:15N 30°16' W 012°48'1316.9
2016-Jun-24 22:30N 30°04' W 012°53'1716.8
2016-Jun-24 21:28N 29°48' W 012°59'1817.1
2016-Jun-24 20:25N 29°31' W 013°06'4016.9
2016-Jun-24 18:03N 28°54' W 013°25'1017.2
2016-Jun-24 17:27N 28°46' W 013°32'1617.7
2016-Jun-24 16:33N 28°34' W 013°44'31 2.3
2016-Jun-24 03:26N 28°49' W 014°15'1517.3
2016-Jun-24 02:33N 28°49' W 014°32'132 2.9
2016-Jun-22 04:32N 28°49' W 017°02'2018.4
2016-Jun-22 03:28N 29°09' W 017°02'1919.0
2016-Jun-22 02:27N 29°28' W 017°01'11818.5
2016-Jun-21 20:04N 31°26' W 016°57'1018.4
2016-Jun-21 19:33N 31°36' W 016°56'2318.3
2016-Jun-21 18:19N 31°58' W 016°55'1518.4
2016-Jun-21 17:31N 32°13' W 016°55'2018.5
2016-Jun-21 16:26N 32°33' W 016°54'82 4.7
2016-Jun-20 23:07N 33°36' W 015°53'4215.1
2016-Jun-20 20:20N 34°15' W 015°33'1215.8
2016-Jun-20 19:33N 34°26' W 015°27'1615.8
2016-Jun-20 18:33N 34°41' W 015°20'2216.1
2016-Jun-20 17:09N 35°01' W 015°09'1116.2
2016-Jun-20 16:30N 35°11' W 015°04'1616.3
2016-Jun-20 15:33N 35°25' W 014°56'2116.3
2016-Jun-20 14:16N 35°45' W 014°46'27516.3
2016-Jun-19 21:23N 39°57' W 012°30'1516.4
2016-Jun-19 20:30N 40°11' W 012°22'1716.5
2016-Jun-19 19:28N 40°26' W 012°13'59416.4
2016-Jun-18 07:18N 49°04' W 005°22'7814.9
2016-Jun-18 02:06N 49°42' W 003°39'916.2
2016-Jun-18 01:32N 49°47' W 003°27'1717.0
2016-Jun-18 00:33N 49°54' W 003°04'1917.8
2016-Jun-17 23:29N 50°02' W 002°36'5016.9
2016-Jun-17 20:31N 50°25' W 001°27'1414.5
2016-Jun-17 19:33N 50°32' W 001°08'1212.4
2016-Jun-17 18:34N 50°43' W 000°59'1313.1
2016-Jun-17 17:33N 50°49' W 001°18'7 6.9
2016-Jun-17 16:29N 50°54' W 001°26'0 0.0
2016-Jun-17 15:32N 50°54' W 001°26'0 0.0
2016-Jun-17 14:32N 50°54' W 001°26'0 0.0
2016-Jun-17 13:32N 50°54' W 001°26'0 0.0
2016-Jun-17 12:32N 50°54' W 001°26'0 0.0
2016-Jun-17 11:26N 50°54' W 001°26'0 0.0
2016-Jun-17 10:32N 50°54' W 001°26'0 0.0
2016-Jun-17 09:32N 50°54' W 001°26'0 0.0
2016-Jun-17 08:32N 50°54' W 001°26'0 0.0
2016-Jun-17 07:32N 50°54' W 001°26'0 0.0
2016-Jun-17 06:32N 50°54' W 001°26'0 0.1
2016-Jun-17 05:33N 50°54' W 001°26'6 6.4
2016-Jun-17 04:33N 50°50' W 001°19'10 9.6
2016-Jun-17 03:33N 50°45' W 001°06'1110.9
2016-Jun-17 02:33N 50°35' W 000°60'1615.1
2016-Jun-17 01:30N 50°27' W 001°22'3114.4
2016-Jun-16 23:21N 50°12' W 002°04'  

Dump ship's entire track history